Providence, New York
Current Conditions -  °F | °C
As of 3:35 AM on Friday 21 Nov 2014 (Local Time) from KNY0 Reporting Station
Overcast Overcast  
Wind Chill: -14°   Ceiling: 4100
Heat Index: -7°   Visibility: 10mi
Dew Point: -12°   Wind: 10mph
Humidity: 72%   Direction: 270°W
Pressure: 29.96"   Gusts: NA
Location:  43.1097°N, 74.0176°W
Report Text: KNY0 210835Z AUTO 27009KT 10SM SCT030 BKN041 OVC060 M07/M12 A2996 RMK AO2 T10731116
Loading
Personal Weather Stations






























Interactive Weather Map New forecast layout! Learn more

10-Day Weather Forecast

Advertisements
Track Severe Weather on mobile